Time;durP1;ratioP1;P1;durP2;ratioP2;P2;SDS_P1;SDS_P2;PMS_P1;PMS_P2;Temp;Humidity;BMP_temperature;BMP_pressure;BME280_temperature;BME280_humidity;BME280_pressure;Samples;Min_cycle;Max_cycle;Signal;HPM_P1;HPM_P2
2022/06/15 00:01:18;;;;;;;3.00;2.70;;;18.40;37.00;;;;;;4993017;28;20207;-45
2022/06/15 00:03:44;;;;;;;3.28;2.58;;;18.40;37.20;;;;;;4993141;28;20418;-45
2022/06/15 00:06:14;;;;;;;3.92;2.42;;;18.40;37.20;;;;;;4992806;28;20175;-45
2022/06/15 00:08:42;;;;;;;3.25;2.95;;;18.30;37.20;;;;;;4993208;28;20199;-45
2022/06/15 00:11:11;;;;;;;3.42;2.92;;;18.30;37.30;;;;;;4992906;28;20183;-45
2022/06/15 00:13:36;;;;;;;4.03;3.65;;;18.20;37.30;;;;;;4992750;28;20656;-45
2022/06/15 00:16:04;;;;;;;3.57;3.13;;;18.20;37.40;;;;;;4992698;28;20183;-45
2022/06/15 00:18:31;;;;;;;4.90;3.10;;;18.10;37.70;;;;;;4992814;28;20218;-45
2022/06/15 00:20:58;;;;;;;3.25;2.20;;;18.10;37.40;;;;;;4992814;28;20289;-45
2022/06/15 00:23:25;;;;;;;3.38;2.85;;;18.00;37.50;;;;;;4992740;28;20589;-45
2022/06/15 00:25:52;;;;;;;3.45;2.70;;;18.00;37.50;;;;;;4992480;28;20210;-45
2022/06/15 00:28:19;;;;;;;3.17;2.50;;;18.00;37.70;;;;;;4992878;28;20182;-45
2022/06/15 00:30:46;;;;;;;3.50;3.20;;;17.90;37.70;;;;;;4992869;28;20210;-45
2022/06/15 00:33:12;;;;;;;3.70;3.40;;;17.90;37.50;;;;;;4992637;28;20281;-45
2022/06/15 00:35:39;;;;;;;3.43;2.73;;;17.90;37.70;;;;;;4992437;28;20259;-45
2022/06/15 00:38:05;;;;;;;3.75;2.80;;;17.90;37.70;;;;;;4992698;28;20410;-45
2022/06/15 00:40:31;;;;;;;3.45;2.70;;;17.90;38.40;;;;;;4992745;28;20237;-45
2022/06/15 00:42:56;;;;;;;3.58;2.53;;;17.90;37.70;;;;;;4992327;28;20671;-45
2022/06/15 00:45:23;;;;;;;3.90;3.00;;;17.90;38.00;;;;;;4992507;28;20234;-45
2022/06/15 00:47:48;;;;;;;3.30;3.00;;;17.80;37.80;;;;;;4992461;28;20600;-45
2022/06/15 00:50:24;;;;;;;2.63;2.30;;;17.80;38.00;;;;;;4992574;28;20254;-45
2022/06/15 00:53:07;;;;;;;3.88;3.40;;;17.80;37.90;;;;;;4992372;28;20199;-45
2022/06/15 00:55:35;;;;;;;3.38;3.05;;;17.80;37.90;;;;;;4992228;28;20524;-45
2022/06/15 00:58:05;;;;;;;4.10;3.60;;;17.70;37.90;;;;;;4996217;28;20651;-45
2022/06/15 01:01:15;;;;;;;3.75;3.22;;;17.70;38.10;;;;;;4996434;28;20262;-45
2022/06/15 01:03:46;;;;;;;5.35;3.60;;;17.70;38.10;;;;;;4968988;28;20199;-45
2022/06/15 01:06:47;;;;;;;5.88;3.85;;;17.70;38.10;;;;;;4996052;28;20262;-45
2022/06/15 01:09:26;;;;;;;7.40;3.40;;;17.60;38.20;;;;;;4991134;28;20187;-45
2022/06/15 01:12:21;;;;;;;5.53;3.63;;;17.60;38.40;;;;;;4996227;28;20218;-45
2022/06/15 01:14:46;;;;;;;4.45;3.88;;;17.60;38.40;;;;;;4996139;28;20187;-45
2022/06/15 01:17:38;;;;;;;3.70;3.40;;;17.60;38.60;;;;;;4996173;28;20266;-45
2022/06/15 01:20:18;;;;;;;5.95;3.33;;;17.60;38.50;;;;;;4995990;28;20211;-45
2022/06/15 01:22:53;;;;;;;3.30;3.00;;;17.50;38.60;;;;;;4995904;28;20210;-45
2022/06/15 01:25:37;;;;;;;6.13;3.53;;;17.40;38.50;;;;;;4995931;28;20703;-45
2022/06/15 01:28:40;;;;;;;4.00;2.95;;;17.40;38.60;;;;;;4995839;28;20590;-45
2022/06/15 01:31:25;;;;;;;5.72;3.40;;;17.40;38.80;;;;;;4995851;28;20650;-45
2022/06/15 01:34:03;;;;;;;4.43;3.35;;;17.40;38.80;;;;;;4995742;28;20289;-45
2022/06/15 01:36:51;;;;;;;3.20;2.90;;;17.30;38.90;;;;;;4995549;28;20175;-45
2022/06/15 01:39:38;;;;;;;3.25;2.85;;;17.30;39.10;;;;;;4995961;28;20594;-45
2022/06/15 01:42:17;;;;;;;4.13;2.72;;;17.20;38.90;;;;;;4995516;28;20203;-45
2022/06/15 01:44:47;;;;;;;3.28;2.97;;;17.20;39.00;;;;;;4995421;28;20241;-45
2022/06/15 01:47:19;;;;;;;2.90;2.40;;;17.20;39.00;;;;;;4995260;28;20175;-45
2022/06/15 01:50:00;;;;;;;2.92;2.50;;;17.20;38.90;;;;;;4995487;28;20247;-45
2022/06/15 01:52:33;;;;;;;2.97;2.67;;;17.20;39.00;;;;;;4995653;28;20314;-45
2022/06/15 01:55:09;;;;;;;2.90;2.40;;;17.10;39.00;;;;;;4995557;28;20270;-45
2022/06/15 01:57:37;;;;;;;4.07;2.83;;;17.10;39.10;;;;;;4995036;28;20186;-45
2022/06/15 02:00:10;;;;;;;5.35;3.30;;;17.00;39.00;;;;;;4995284;28;20187;-45
2022/06/15 02:02:58;;;;;;;4.03;3.63;;;17.00;39.30;;;;;;4995112;28;20684;-45
2022/06/15 02:06:15;;;;;;;3.75;3.20;;;16.90;39.10;;;;;;4995135;28;20186;-45
2022/06/15 02:08:47;;;;;;;5.60;3.85;;;16.90;39.30;;;;;;4988529;28;20238;-45
2022/06/15 02:11:22;;;;;;;4.10;3.58;;;16.90;39.40;;;;;;4995079;28;20178;-45
2022/06/15 02:14:01;;;;;;;3.08;2.78;;;16.90;39.50;;;;;;4995146;28;20259;-45
2022/06/15 02:16:33;;;;;;;3.70;3.15;;;16.80;39.30;;;;;;4994877;28;20160;-45
2022/06/15 02:19:03;;;;;;;5.75;3.33;;;16.80;39.30;;;;;;4994931;28;20176;-45
2022/06/15 02:21:29;;;;;;;4.45;2.95;;;16.80;39.50;;;;;;4994895;28;20206;-44
2022/06/15 02:24:00;;;;;;;3.78;2.85;;;16.70;39.50;;;;;;4994720;28;20196;-45
2022/06/15 02:26:31;;;;;;;4.90;3.10;;;16.70;39.60;;;;;;4994595;28;20176;-44
2022/06/15 02:29:02;;;;;;;2.90;2.60;;;16.70;39.50;;;;;;4995069;28;20191;-45
2022/06/15 02:31:28;;;;;;;3.28;2.90;;;16.60;39.50;;;;;;4994772;28;20602;-45
2022/06/15 02:33:56;;;;;;;3.07;2.77;;;16.60;39.60;;;;;;4994587;28;20235;-45
2022/06/15 02:36:23;;;;;;;6.03;3.17;;;16.60;39.60;;;;;;4994480;28;20414;-45
2022/06/15 02:38:51;;;;;;;3.38;2.72;;;16.60;39.60;;;;;;4994602;28;20190;-45
2022/06/15 02:41:21;;;;;;;3.50;2.80;;;16.60;39.60;;;;;;4994647;28;20202;-45
2022/06/15 02:43:49;;;;;;;4.65;3.70;;;16.50;39.70;;;;;;4994623;28;20563;-45
2022/06/15 02:46:17;;;;;;;6.25;3.40;;;16.50;39.60;;;;;;4994428;28;20182;-45
2022/06/15 02:48:43;;;;;;;3.70;2.65;;;16.50;39.60;;;;;;4994690;28;20229;-45
2022/06/15 02:51:17;;;;;;;3.40;2.75;;;16.50;39.60;;;;;;4994695;28;20179;-45
2022/06/15 02:53:44;;;;;;;3.67;2.97;;;16.50;39.70;;;;;;4994143;28;20202;-45
2022/06/15 02:56:13;;;;;;;3.05;2.75;;;16.40;39.50;;;;;;4993950;28;20179;-45
2022/06/15 02:58:49;;;;;;;4.28;3.88;;;16.40;39.70;;;;;;4994212;28;20651;-45
2022/06/15 03:01:16;;;;;;;3.72;2.92;;;16.40;39.70;;;;;;4994239;28;20207;-45
2022/06/15 03:03:42;;;;;;;3.50;3.20;;;16.40;40.00;;;;;;4994107;28;20624;-45
2022/06/15 03:06:13;;;;;;;3.30;3.00;;;16.40;39.90;;;;;;4993791;28;20271;-45
2022/06/15 03:08:39;;;;;;;2.80;2.60;;;16.40;39.90;;;;;;4994075;28;20403;-45
2022/06/15 03:11:05;;;;;;;2.93;2.57;;;16.40;40.00;;;;;;4994178;28;20242;-45
2022/06/15 03:13:31;;;;;;;3.20;2.73;;;16.40;40.00;;;;;;4993827;28;20622;-45
2022/06/15 03:15:58;;;;;;;3.28;2.58;;;16.40;40.00;;;;;;4993644;28;20503;-45
2022/06/15 03:18:28;;;;;;;3.17;2.88;;;16.40;40.10;;;;;;4993776;28;20190;-45
2022/06/15 03:21:02;;;;;;;6.55;2.72;;;16.40;40.30;;;;;;4992916;28;20635;-46
2022/06/15 03:23:30;;;;;;;5.03;3.35;;;16.40;40.10;;;;;;4993790;28;20230;-46
2022/06/15 03:25:58;;;;;;;3.28;2.97;;;16.30;40.30;;;;;;4993567;28;20182;-46
2022/06/15 03:28:25;;;;;;;3.42;3.13;;;16.40;40.20;;;;;;4993703;28;20215;-46
2022/06/15 03:30:52;;;;;;;4.43;2.97;;;16.30;40.30;;;;;;4993536;28;20588;-45
2022/06/15 03:33:19;;;;;;;6.50;3.42;;;16.30;40.30;;;;;;4993386;28;20245;-45
2022/06/15 03:35:45;;;;;;;3.45;2.80;;;16.30;40.30;;;;;;4993268;28;20186;-45
2022/06/15 03:38:11;;;;;;;7.10;3.40;;;16.30;40.20;;;;;;4993361;28;20195;-46
2022/06/15 03:40:43;;;;;;;4.53;3.30;;;16.30;40.40;;;;;;4993520;28;20186;-45
2022/06/15 03:43:09;;;;;;;2.80;2.60;;;16.30;40.50;;;;;;4993433;28;20450;-46
2022/06/15 03:45:36;;;;;;;5.50;2.20;;;16.30;40.70;;;;;;4993091;28;20207;-45
2022/06/15 03:48:02;;;;;;;3.75;2.85;;;16.30;40.50;;;;;;4993204;28;20187;-46
2022/06/15 03:50:31;;;;;;;3.83;3.17;;;16.40;40.60;;;;;;4993273;28;20180;-46
2022/06/15 03:52:58;;;;;;;3.72;3.42;;;16.40;40.60;;;;;;4993227;28;20545;-45
2022/06/15 03:55:23;;;;;;;4.57;3.55;;;16.40;40.60;;;;;;4993294;28;20183;-45
2022/06/15 03:57:49;;;;;;;5.63;3.20;;;16.50;40.70;;;;;;4993025;28;20543;-45
2022/06/15 04:00:19;;;;;;;4.18;2.70;;;16.50;40.60;;;;;;4993023;28;20180;-45
2022/06/15 04:02:45;;;;;;;5.07;3.58;;;16.50;40.60;;;;;;4992848;28;20273;-46
2022/06/15 04:05:33;;;;;;;4.18;3.10;;;16.60;40.60;;;;;;4993260;28;20254;-45
2022/06/15 04:10:43;;;;;;;3.60;2.67;;;16.70;40.70;;;;;;4993164;28;20166;-45
2022/06/15 04:13:09;;;;;;;3.80;2.83;;;16.70;40.70;;;;;;4992765;28;20191;-46
2022/06/15 04:15:35;;;;;;;6.73;3.20;;;16.70;40.70;;;;;;4992644;28;20164;-46
2022/06/15 04:18:01;;;;;;;4.10;3.57;;;16.80;40.80;;;;;;4992774;28;20262;-46
2022/06/15 04:20:33;;;;;;;3.47;3.17;;;16.80;40.70;;;;;;4992879;28;20596;-46
2022/06/15 04:23:19;;;;;;;4.68;4.22;;;16.90;40.60;;;;;;4992960;28;20197;-46
2022/06/15 04:25:52;;;;;;;4.75;3.78;;;17.00;40.70;;;;;;4992750;28;20179;-45
2022/06/15 04:28:21;;;;;;;5.13;3.22;;;17.10;40.30;;;;;;4992863;28;20270;-45
2022/06/15 04:30:47;;;;;;;3.67;3.33;;;17.10;40.10;;;;;;4992610;28;20175;-46
2022/06/15 04:33:13;;;;;;;4.18;3.53;;;17.20;40.10;;;;;;4992654;28;20195;-46
2022/06/15 04:35:39;;;;;;;4.13;3.00;;;17.30;40.30;;;;;;4992282;28;20187;-46
2022/06/15 04:38:06;;;;;;;4.88;3.40;;;17.30;40.20;;;;;;4992802;28;20497;-45
2022/06/15 04:40:33;;;;;;;3.20;2.70;;;17.30;40.70;;;;;;4992695;28;20206;-45
2022/06/15 04:42:59;;;;;;;4.78;3.83;;;17.40;40.00;;;;;;4992610;28;20283;-46
2022/06/15 04:45:25;;;;;;;4.20;3.67;;;17.40;39.60;;;;;;4992525;28;20608;-45
2022/06/15 04:47:51;;;;;;;4.17;3.13;;;17.50;39.70;;;;;;4992399;28;20425;-45
2022/06/15 04:50:17;;;;;;;4.07;3.67;;;17.60;39.60;;;;;;4992489;28;20179;-46
2022/06/15 04:52:44;;;;;;;7.93;3.20;;;17.70;39.70;;;;;;4992205;28;20202;-46
2022/06/15 04:55:12;;;;;;;6.00;3.33;;;17.70;39.50;;;;;;4992577;28;20279;-44
2022/06/15 04:57:38;;;;;;;4.22;3.83;;;17.80;39.40;;;;;;4992178;28;20590;-46
2022/06/15 05:00:07;;;;;;;3.90;3.47;;;17.90;39.30;;;;;;4992430;28;20179;-46
2022/06/15 05:02:33;;;;;;;5.25;3.53;;;18.00;39.10;;;;;;4992449;28;20489;-45
2022/06/15 05:04:59;;;;;;;3.70;3.40;;;18.10;39.10;;;;;;4992285;28;20213;-45
2022/06/15 05:07:25;;;;;;;4.40;3.93;;;18.20;39.00;;;;;;4992001;28;20469;-45
2022/06/15 05:09:51;;;;;;;5.22;3.63;;;18.30;39.00;;;;;;4992314;28;20235;-44
2022/06/15 05:12:18;;;;;;;3.40;3.10;;;18.30;38.90;;;;;;4992485;28;20188;-44
2022/06/15 05:14:48;;;;;;;3.10;2.80;;;18.40;38.70;;;;;;4991767;28;20199;-45
2022/06/15 05:17:19;;;;;;;6.93;3.17;;;18.50;38.60;;;;;;4992069;28;20250;-43
2022/06/15 05:19:45;;;;;;;8.32;2.97;;;18.50;38.30;;;;;;4992138;28;20647;-44
2022/06/15 05:22:11;;;;;;;4.67;3.20;;;18.50;38.00;;;;;;4992355;28;20218;-45
2022/06/15 05:24:37;;;;;;;4.23;3.30;;;18.50;38.10;;;;;;4992192;28;20422;-45
2022/06/15 05:27:04;;;;;;;3.90;3.50;;;18.50;38.30;;;;;;4992006;28;20419;-46
2022/06/15 05:29:30;;;;;;;4.95;3.08;;;18.60;38.10;;;;;;4992177;28;20410;-46
2022/06/15 05:31:56;;;;;;;4.80;3.60;;;18.60;37.90;;;;;;4992118;28;20563;-45
2022/06/15 05:34:23;;;;;;;4.57;3.30;;;18.60;38.00;;;;;;4992313;28;20210;-46
2022/06/15 05:36:49;;;;;;;4.32;3.05;;;18.80;38.10;;;;;;4992117;28;20233;-45
2022/06/15 05:39:14;;;;;;;5.80;3.77;;;18.90;37.70;;;;;;4992177;28;20254;-46
2022/06/15 05:41:41;;;;;;;3.47;3.17;;;18.90;37.20;;;;;;4991872;28;20985;-45
2022/06/15 05:47:00;;;;;;;3.58;3.00;;;19.00;37.90;;;;;;4995572;28;20240;-45
2022/06/15 05:49:27;;;;;;;3.95;3.05;;;19.20;37.60;;;;;;4995648;28;20166;-46
2022/06/15 05:51:53;;;;;;;4.05;3.47;;;19.30;37.50;;;;;;4995437;28;20237;-46
2022/06/15 05:54:19;;;;;;;4.27;3.47;;;19.30;37.20;;;;;;4995434;28;20195;-46
2022/06/15 05:56:45;;;;;;;4.22;3.45;;;19.30;36.90;;;;;;4995068;28;20421;-46
2022/06/15 05:59:11;;;;;;;6.88;4.13;;;19.20;36.60;;;;;;4995150;28;20183;-46
2022/06/15 06:01:38;;;;;;;3.42;3.10;;;19.20;36.70;;;;;;4995282;28;20214;-46
2022/06/15 06:04:04;;;;;;;3.70;3.00;;;19.30;37.00;;;;;;4995083;28;20605;-45
2022/06/15 06:06:31;;;;;;;5.20;3.00;;;19.30;36.90;;;;;;4994898;28;20181;-45
2022/06/15 06:08:58;;;;;;;4.63;3.35;;;19.40;36.90;;;;;;4995032;28;20540;-46
2022/06/15 06:11:25;;;;;;;2.72;2.53;;;19.50;36.80;;;;;;4995048;28;20179;-45
2022/06/15 06:13:50;;;;;;;4.97;3.60;;;19.50;36.70;;;;;;4994877;28;20207;-46
2022/06/15 06:16:16;;;;;;;5.27;3.40;;;19.60;36.50;;;;;;4994815;28;20168;-46
2022/06/15 06:18:42;;;;;;;4.13;2.87;;;19.70;37.00;;;;;;4994886;28;20954;-46
2022/06/15 06:21:08;;;;;;;3.53;2.70;;;19.90;37.30;;;;;;4995082;28;20287;-46
2022/06/15 06:23:35;;;;;;;4.43;3.17;;;20.10;37.50;;;;;;4994842;28;20299;-46
2022/06/15 06:26:01;;;;;;;3.67;2.05;;;20.40;37.40;;;;;;4994523;28;20225;-45
2022/06/15 06:28:29;;;;;;;7.18;2.50;;;20.50;37.00;;;;;;4994714;28;20179;-46
2022/06/15 06:30:59;;;;;;;3.72;2.60;;;20.60;36.40;;;;;;4994683;28;20179;-46
2022/06/15 06:33:31;;;;;;;9.85;3.13;;;20.80;36.70;;;;;;4994591;28;20575;-46
2022/06/15 06:35:59;;;;;;;3.55;2.72;;;21.00;35.60;;;;;;4994435;28;20214;-45
2022/06/15 06:38:25;;;;;;;3.65;2.55;;;21.00;35.60;;;;;;4994650;28;20175;-45
2022/06/15 06:40:53;;;;;;;4.47;1.65;;;21.10;36.00;;;;;;4994651;28;20191;-44
2022/06/15 06:43:19;;;;;;;5.50;2.88;;;21.20;35.00;;;;;;4994446;28;20207;-44
2022/06/15 06:45:45;;;;;;;4.27;2.73;;;21.20;35.00;;;;;;4994342;28;20525;-44
2022/06/15 06:48:11;;;;;;;4.90;2.60;;;21.30;35.20;;;;;;4994508;28;20508;-44
2022/06/15 06:50:39;;;;;;;3.67;2.60;;;21.40;35.00;;;;;;4994377;28;20171;-45
2022/06/15 06:53:06;;;;;;;2.65;1.88;;;21.40;35.20;;;;;;4994185;28;20206;-44
2022/06/15 06:55:32;;;;;;;2.38;2.10;;;21.50;34.50;;;;;;4993860;28;20229;-44
2022/06/15 06:58:00;;;;;;;3.27;2.40;;;21.60;34.60;;;;;;4994479;28;20254;-44
2022/06/15 07:00:26;;;;;;;2.17;1.75;;;21.70;34.70;;;;;;4994173;28;20501;-44
2022/06/15 07:02:52;;;;;;;4.63;2.37;;;21.80;34.10;;;;;;4994085;28;20239;-45
2022/06/15 07:05:19;;;;;;;5.43;1.77;;;21.90;34.60;;;;;;4993972;28;20903;-44
2022/06/15 07:07:45;;;;;;;3.63;1.88;;;22.10;34.50;;;;;;4993770;28;20494;-45
2022/06/15 07:10:12;;;;;;;5.30;2.77;;;22.10;33.50;;;;;;4993993;28;20551;-44
2022/06/15 07:12:42;;;;;;;5.80;2.63;;;22.20;33.00;;;;;;4994041;28;21118;-44
2022/06/15 07:15:09;;;;;;;3.23;2.03;;;22.20;33.10;;;;;;4994132;28;20480;-44
2022/06/15 07:17:35;;;;;;;7.10;2.27;;;22.40;34.00;;;;;;4993893;28;20410;-45
2022/06/15 07:20:01;;;;;;;2.93;2.23;;;22.60;34.60;;;;;;4993822;28;20461;-45
2022/06/15 07:22:27;;;;;;;2.77;2.10;;;22.80;35.00;;;;;;4993732;28;20462;-44
2022/06/15 07:24:53;;;;;;;3.23;2.23;;;23.10;34.60;;;;;;4993612;28;20749;-44
2022/06/15 07:27:18;;;;;;;3.97;2.30;;;23.30;33.60;;;;;;4993492;28;20402;-44
2022/06/15 07:29:46;;;;;;;3.00;2.20;;;23.40;34.00;;;;;;4993573;28;20171;-44
2022/06/15 07:32:14;;;;;;;2.20;1.80;;;23.70;33.90;;;;;;4993614;28;20226;-44
2022/06/15 07:34:40;;;;;;;4.70;2.27;;;23.80;31.50;;;;;;4993674;28;20430;-45
2022/06/15 07:37:07;;;;;;;2.80;2.00;;;23.90;32.60;;;;;;4993243;28;20910;-44
2022/06/15 07:39:33;;;;;;;2.37;1.90;;;24.10;32.70;;;;;;4993606;28;20542;-47
2022/06/15 07:41:59;;;;;;;2.83;1.80;;;24.20;32.20;;;;;;4993360;28;20507;-46
2022/06/15 07:44:27;;;;;;;2.30;1.37;;;24.30;31.30;;;;;;4993185;28;20454;-45
2022/06/15 07:49:56;;;;;;;2.33;1.60;;;24.40;31.40;;;;;;4952968;28;20422;-45
2022/06/15 07:52:36;;;;;;;3.17;1.83;;;24.60;30.30;;;;;;4993309;28;20417;-46
2022/06/15 07:55:02;;;;;;;3.77;1.53;;;24.60;30.10;;;;;;4993287;28;20414;-46
2022/06/15 07:57:28;;;;;;;2.33;2.00;;;24.60;30.00;;;;;;4992884;28;20419;-47
2022/06/15 07:59:53;;;;;;;2.53;1.77;;;24.70;30.80;;;;;;4992998;28;20415;-47
2022/06/15 08:02:20;;;;;;;2.57;1.80;;;24.90;31.00;;;;;;4993010;28;20671;-46
2022/06/15 08:04:46;;;;;;;2.43;1.83;;;25.00;30.10;;;;;;4992844;28;20278;-46
2022/06/15 08:07:15;;;;;;;2.30;1.47;;;25.10;30.60;;;;;;4992388;28;20485;-47
2022/06/15 08:09:42;;;;;;;2.47;1.80;;;25.20;28.90;;;;;;4993013;28;20410;-46
2022/06/15 08:12:12;;;;;;;2.43;1.77;;;25.30;28.40;;;;;;4992958;28;20439;-45
2022/06/15 08:14:59;;;;;;;2.37;1.57;;;25.40;29.60;;;;;;4993043;28;20430;-45
2022/06/15 08:17:30;;;;;;;3.67;1.80;;;25.70;29.20;;;;;;4992602;28;20391;-45
2022/06/15 08:20:05;;;;;;;2.20;1.50;;;25.80;30.00;;;;;;4992796;28;20421;-46
2022/06/15 08:22:33;;;;;;;2.83;1.80;;;26.00;29.60;;;;;;4992707;28;20453;-45
2022/06/15 08:25:01;;;;;;;2.43;1.70;;;26.10;29.00;;;;;;4993042;28;20411;-45
2022/06/15 08:27:28;;;;;;;3.60;1.50;;;26.30;29.30;;;;;;4992721;28;20914;-45
2022/06/15 08:29:54;;;;;;;3.10;1.87;;;26.50;29.50;;;;;;4992950;28;20773;-45
2022/06/15 08:32:19;;;;;;;2.43;1.40;;;26.60;28.00;;;;;;4992673;28;20417;-44
2022/06/15 08:34:46;;;;;;;2.27;1.50;;;26.70;27.70;;;;;;4992499;28;20431;-45
2022/06/15 08:37:14;;;;;;;2.87;1.53;;;26.70;24.90;;;;;;4992420;28;20186;-45
2022/06/15 08:39:41;;;;;;;2.93;1.60;;;26.80;26.00;;;;;;4992526;28;20502;-46
2022/06/15 08:42:09;;;;;;;2.93;1.63;;;26.80;24.20;;;;;;4992402;28;21016;-45
2022/06/15 08:45:11;;;;;;;2.30;2.10;;;26.90;25.40;;;;;;4992425;28;20882;-45
2022/06/15 08:48:06;;;;;;;2.73;1.47;;;27.00;25.50;;;;;;4979830;28;20421;-45
2022/06/15 08:51:04;;;;;;;2.30;1.50;;;27.20;23.70;;;;;;4992493;28;20391;-44
2022/06/15 08:53:50;;;;;;;2.07;1.23;;;27.20;23.80;;;;;;4992427;28;20431;-45
2022/06/15 08:56:47;;;;;;;2.00;1.40;;;27.30;25.80;;;;;;4992214;28;20398;-44
2022/06/15 08:59:23;;;;;;;3.60;2.10;;;27.40;23.00;;;;;;4991746;28;20445;-45
2022/06/15 09:02:05;;;;;;;3.13;1.30;;;27.40;25.00;;;;;;4992355;28;20446;-44
2022/06/15 09:04:56;;;;;;;3.30;1.40;;;27.50;24.40;;;;;;4992293;28;20426;-45
2022/06/15 09:07:31;;;;;;;3.03;1.40;;;27.70;24.50;;;;;;4992458;28;20482;-44
2022/06/15 09:10:15;;;;;;;2.93;1.40;;;27.80;25.40;;;;;;4992639;28;20402;-46
2022/06/15 09:13:01;;;;;;;2.30;1.60;;;27.90;23.00;;;;;;4992731;28;20417;-46
2022/06/15 09:15:48;;;;;;;1.80;1.33;;;28.00;23.80;;;;;;4992787;28;20388;-46
2022/06/15 09:18:26;;;;;;;2.07;1.27;;;28.10;24.60;;;;;;4994959;28;20411;-43
2022/06/15 09:21:00;;;;;;;3.33;1.70;;;28.10;24.40;;;;;;4996101;28;20405;-44
2022/06/15 09:23:43;;;;;;;2.90;1.20;;;28.30;25.00;;;;;;4996039;28;20418;-44
2022/06/15 09:26:19;;;;;;;2.03;1.30;;;28.40;22.20;;;;;;4996098;28;20387;-44
2022/06/15 09:29:08;;;;;;;3.20;1.70;;;28.40;23.10;;;;;;4996361;28;20428;-43
2022/06/15 09:31:56;;;;;;;3.70;1.60;;;28.50;23.30;;;;;;4995924;28;20412;-45
2022/06/15 09:34:33;;;;;;;4.23;1.60;;;28.50;22.10;;;;;;4995750;28;20426;-45
2022/06/15 09:36:59;;;;;;;1.67;0.90;;;28.60;23.20;;;;;;4995662;28;20755;-47
2022/06/15 09:39:27;;;;;;;1.93;1.20;;;28.60;22.00;;;;;;4995635;28;20418;-46
2022/06/15 09:41:56;;;;;;;2.10;1.20;;;28.60;21.80;;;;;;4995559;28;20457;-45
2022/06/15 09:44:45;;;;;;;1.80;1.10;;;28.60;22.30;;;;;;4995403;28;20864;-46
2022/06/15 09:47:22;;;;;;;7.40;1.63;;;28.70;21.10;;;;;;4945674;28;20795;-47
2022/06/15 09:49:55;;;;;;;2.10;1.27;;;28.70;22.70;;;;;;4995442;28;20913;-46
2022/06/15 09:52:36;;;;;;;2.63;2.20;;;28.90;22.80;;;;;;4995494;28;20931;-46
2022/06/15 09:55:10;;;;;;;2.30;1.70;;;29.00;23.50;;;;;;4995378;28;20490;-46
2022/06/15 09:57:39;;;;;;;2.40;1.20;;;29.20;23.80;;;;;;4995163;28;20414;-46
2022/06/15 10:00:09;;;;;;;1.70;1.27;;;29.30;23.00;;;;;;4995332;28;20407;-47
2022/06/15 10:02:38;;;;;;;2.00;1.07;;;29.40;22.70;;;;;;4995104;28;20457;-46
2022/06/15 10:05:15;;;;;;;2.47;1.30;;;29.40;23.20;;;;;;4995255;28;20446;-47
2022/06/15 10:07:44;;;;;;;2.20;1.47;;;29.50;23.30;;;;;;4994996;28;20399;-46
2022/06/15 10:10:13;;;;;;;2.30;1.40;;;29.70;23.30;;;;;;4995231;28;20399;-46
2022/06/15 10:12:59;;;;;;;7.97;1.43;;;29.80;23.30;;;;;;4994949;28;20421;-46
2022/06/15 10:15:43;;;;;;;2.33;1.50;;;29.80;23.10;;;;;;4994935;28;20419;-46
2022/06/15 10:18:29;;;;;;;2.70;1.80;;;30.00;23.30;;;;;;4995082;28;20395;-46
2022/06/15 10:21:06;;;;;;;2.10;1.27;;;30.10;23.40;;;;;;4994612;28;20418;-46
2022/06/15 10:23:35;;;;;;;1.97;1.47;;;30.10;23.70;;;;;;4994854;28;20426;-46
2022/06/15 10:26:02;;;;;;;5.37;1.77;;;30.20;22.50;;;;;;4994486;28;20414;-46
2022/06/15 10:28:41;;;;;;;3.90;1.80;;;30.30;22.80;;;;;;4977036;28;20419;-46
2022/06/15 10:31:13;;;;;;;2.07;1.43;;;30.40;22.70;;;;;;4994774;28;20906;-45
2022/06/15 10:33:50;;;;;;;5.63;1.90;;;30.40;23.00;;;;;;4994896;28;20432;-43
2022/06/15 10:36:33;;;;;;;4.50;2.63;;;30.50;20.10;;;;;;4994712;28;20879;-43
2022/06/15 10:39:25;;;;;;;2.53;1.53;;;30.40;19.50;;;;;;4994833;28;20408;-45
2022/06/15 10:41:56;;;;;;;4.40;1.90;;;30.40;21.30;;;;;;4994004;28;20881;-47
2022/06/15 10:44:31;;;;;;;4.90;1.63;;;30.50;20.50;;;;;;4994450;28;20494;-45
2022/06/15 10:47:17;;;;;;;4.93;1.93;;;30.50;21.20;;;;;;4994588;28;20492;-47
2022/06/15 10:49:48;;;;;;;2.07;1.47;;;30.70;19.60;;;;;;4994422;28;20405;-47
2022/06/15 10:52:29;;;;;;;2.60;1.40;;;30.70;20.90;;;;;;4994554;28;20413;-48
2022/06/15 11:04:49;;;;;;;1.90;1.40;;;31.10;20.50;;;;;;4994476;28;20474;-44
2022/06/15 11:07:22;;;;;;;2.10;1.50;;;31.30;21.30;;;;;;4993544;28;20427;-44
2022/06/15 11:09:54;;;;;;;2.87;1.80;;;31.30;20.40;;;;;;4994104;28;20398;-46
2022/06/15 11:12:29;;;;;;;2.90;1.43;;;31.40;20.30;;;;;;4994229;28;20424;-47
2022/06/15 11:14:58;;;;;;;2.70;1.80;;;31.40;19.10;;;;;;4993925;28;20898;-46
2022/06/15 11:20:44;;;;;;;2.00;1.57;;;31.40;20.20;;;;;;4994297;28;20416;-46
2022/06/15 11:23:13;;;;;;;2.10;1.27;;;31.50;20.80;;;;;;4993917;28;20462;-46
2022/06/15 11:25:54;;;;;;;4.50;1.60;;;31.60;20.80;;;;;;4993889;28;20402;-47
2022/06/15 11:28:28;;;;;;;3.23;1.47;;;31.70;20.30;;;;;;4993767;28;20415;-47
2022/06/15 11:31:09;;;;;;;7.60;1.67;;;31.90;20.60;;;;;;4993611;28;20497;-45
2022/06/15 11:33:44;;;;;;;2.30;1.50;;;32.10;21.30;;;;;;4993717;28;20441;-46
2022/06/15 11:36:34;;;;;;;1.90;1.43;;;32.20;19.70;;;;;;4993779;28;20382;-47
2022/06/15 11:39:04;;;;;;;1.90;1.20;;;32.30;20.10;;;;;;4993650;28;20489;-45
2022/06/15 11:41:44;;;;;;;2.37;1.20;;;32.30;20.70;;;;;;4992433;28;20454;-46
2022/06/15 11:44:18;;;;;;;2.30;1.33;;;32.50;20.30;;;;;;4993258;28;20442;-46
2022/06/15 11:47:31;;;;;;;1.80;1.20;;;32.50;20.00;;;;;;4993327;28;20419;-46
2022/06/15 11:50:27;;;;;;;7.00;2.53;;;32.40;18.30;;;;;;4919315;28;20752;-44
2022/06/15 11:53:10;;;;;;;1.90;1.50;;;32.40;19.30;;;;;;4993386;28;20426;-45
2022/06/15 11:55:48;;;;;;;1.87;1.27;;;32.40;19.50;;;;;;4993563;28;20485;-47
2022/06/15 11:58:51;;;;;;;2.70;1.50;;;32.40;18.80;;;;;;4993477;28;20405;-46
2022/06/15 12:01:40;;;;;;;2.00;1.50;;;32.50;18.90;;;;;;4993566;28;20537;-47
2022/06/15 12:04:43;;;;;;;2.30;1.50;;;32.60;19.40;;;;;;4993620;28;20433;-47
2022/06/15 12:07:43;;;;;;;2.57;1.40;;;32.80;19.00;;;;;;4993510;28;20429;-47
2022/06/15 12:10:37;;;;;;;2.73;1.47;;;32.80;18.50;;;;;;4993162;28;20898;-46
2022/06/15 12:13:40;;;;;;;1.70;1.20;;;32.80;18.00;;;;;;4993236;28;20437;-46
2022/06/15 12:16:35;;;;;;;1.90;1.30;;;32.70;17.70;;;;;;4992905;28;20393;-47
2022/06/15 12:19:30;;;;;;;2.30;1.33;;;32.60;17.00;;;;;;4984874;28;20838;-46
2022/06/15 12:22:05;;;;;;;2.03;1.40;;;32.50;18.10;;;;;;4992749;28;20981;-47
2022/06/15 12:25:28;;;;;;;3.40;2.23;;;32.70;18.60;;;;;;4992589;28;20928;-46
2022/06/15 12:28:08;;;;;;;1.93;1.40;;;32.80;17.00;;;;;;4894573;29;20771;-47
2022/06/15 12:30:50;;;;;;;2.07;1.73;;;32.70;15.60;;;;;;4894705;29;20404;-46
2022/06/15 12:33:40;;;;;;;2.00;1.50;;;32.60;17.60;;;;;;4894609;29;20439;-46
2022/06/15 12:36:20;;;;;;;3.50;1.50;;;32.70;17.40;;;;;;4894542;29;20418;-46
2022/06/15 12:38:55;;;;;;;1.77;1.33;;;32.60;16.70;;;;;;4894785;29;20812;-46
2022/06/15 12:44:26;;;;;;;2.53;1.53;;;32.50;16.40;;;;;;4894374;29;20571;-46
2022/06/15 12:46:54;;;;;;;2.20;1.37;;;32.50;18.00;;;;;;4894411;29;20775;-45
2022/06/15 12:49:30;;;;;;;2.70;1.30;;;32.60;18.10;;;;;;4894630;29;20995;-45
2022/06/15 12:52:03;;;;;;;1.90;1.10;;;32.70;17.30;;;;;;4894908;29;20422;-45
2022/06/15 12:55:10;;;;;;;2.30;1.37;;;32.80;17.40;;;;;;4898436;29;20430;-43
2022/06/15 12:57:46;;;;;;;2.03;1.33;;;32.90;16.60;;;;;;4916109;28;20837;-45
2022/06/15 13:00:18;;;;;;;6.13;1.23;;;32.90;16.80;;;;;;4996397;28;20756;-44
2022/06/15 13:03:10;;;;;;;1.50;1.00;;;33.00;17.30;;;;;;4996146;28;20521;-46
2022/06/15 13:05:38;;;;;;;2.10;1.73;;;32.90;17.70;;;;;;4950850;28;20849;-45
2022/06/15 13:08:04;;;;;;;2.50;1.33;;;33.00;17.00;;;;;;4996199;28;20406;-45
2022/06/15 13:10:32;;;;;;;2.30;1.57;;;33.00;17.90;;;;;;4996024;28;20403;-45
2022/06/15 13:13:04;;;;;;;3.07;1.50;;;33.10;18.20;;;;;;4996353;28;20434;-45
2022/06/15 13:15:54;;;;;;;2.70;1.70;;;33.30;17.70;;;;;;4996030;28;21091;-46
2022/06/15 13:18:46;;;;;;;2.50;1.50;;;33.40;17.70;;;;;;4996097;28;20414;-45
2022/06/15 13:21:24;;;;;;;2.13;1.00;;;33.50;16.80;;;;;;4995920;28;20530;-45
2022/06/15 13:24:06;;;;;;;2.00;1.50;;;33.60;17.70;;;;;;4996203;28;20419;-46
2022/06/15 13:26:39;;;;;;;2.83;1.43;;;33.70;17.40;;;;;;4995771;28;20502;-44
2022/06/15 13:29:11;;;;;;;2.00;1.43;;;33.80;16.90;;;;;;4995816;28;20498;-45
2022/06/15 13:32:05;;;;;;;1.90;1.10;;;33.80;17.50;;;;;;4995779;28;20493;-46
2022/06/15 13:34:34;;;;;;;1.97;1.60;;;33.90;17.40;;;;;;4995819;28;20472;-47
2022/06/15 13:37:15;;;;;;;4.17;1.30;;;34.00;17.40;;;;;;4995608;28;20417;-46
2022/06/15 13:39:45;;;;;;;2.90;1.43;;;34.00;17.90;;;;;;4995607;28;20404;-46
2022/06/15 13:42:25;;;;;;;2.90;1.77;;;34.00;17.50;;;;;;4995882;28;20854;-47
2022/06/15 13:45:22;;;;;;;1.83;1.20;;;34.10;16.90;;;;;;4995753;28;20394;-46